Time;durP1;ratioP1;P1;durP2;ratioP2;P2;SDS_P1;SDS_P2;PMS_P1;PMS_P2;Temp;Humidity;BMP_temperature;BMP_pressure;BME280_temperature;BME280_humidity;BME280_pressure;Samples;Min_cycle;Max_cycle;Signal;HPM_P1;HPM_P2
2021/07/06 00:00:29;;;;;;;4.37;3.90;;;;;;;29.48;42.69;100616.94;144993;583;6002;-81
2021/07/06 00:02:56;;;;;;;5.15;4.00;;;;;;;29.43;42.67;100609.13;144993;586;6002;-81
2021/07/06 00:05:23;;;;;;;4.87;4.03;;;;;;;29.42;42.91;100611.88;144993;569;6002;-80
2021/07/06 00:07:50;;;;;;;7.53;4.05;;;;;;;29.42;42.68;100612.75;144993;575;6002;-81
2021/07/06 00:10:18;;;;;;;6.97;4.18;;;;;;;29.42;42.49;100617.25;144993;610;6002;-81
2021/07/06 00:12:45;;;;;;;6.40;4.15;;;;;;;29.41;42.28;100612.81;144993;669;6002;-81
2021/07/06 00:15:14;;;;;;;7.35;4.40;;;;;;;29.41;42.63;100618.16;144992;583;6002;-81
2021/07/06 00:17:42;;;;;;;5.53;3.90;;;;;;;29.35;42.42;100615.81;144994;569;5002;-81
2021/07/06 00:20:11;;;;;;;6.53;3.95;;;;;;;29.30;42.69;100613.34;144994;613;5002;-81
2021/07/06 00:22:38;;;;;;;4.22;3.92;;;;;;;29.29;42.60;100619.66;144994;585;5002;-80
2021/07/06 00:25:06;;;;;;;4.85;4.10;;;;;;;29.29;42.53;100619.66;144994;674;5002;-80
2021/07/06 00:27:32;;;;;;;5.72;4.70;;;;;;;29.31;42.77;100625.78;144994;586;5002;-81
2021/07/06 00:29:59;;;;;;;5.18;4.53;;;;;;;29.28;41.81;100623.28;144994;581;5002;-81
2021/07/06 00:32:25;;;;;;;4.50;4.00;;;;;;;29.27;42.93;100624.19;144994;604;5002;-81
2021/07/06 00:34:52;;;;;;;5.05;4.22;;;;;;;29.27;42.62;100613.50;144994;579;5002;-81
2021/07/06 00:37:18;;;;;;;8.75;4.60;;;;;;;29.28;42.60;100623.28;144994;569;5002;-84
2021/07/06 00:39:45;;;;;;;4.43;4.03;;;;;;;29.24;42.51;100611.88;144994;662;5002;-81
2021/07/06 00:42:11;;;;;;;4.35;3.90;;;;;;;29.25;42.68;100605.56;144994;573;5002;-81
2021/07/06 00:44:39;;;;;;;5.40;4.20;;;;;;;29.22;42.44;100610.22;144994;606;5002;-81
2021/07/06 00:47:06;;;;;;;4.15;3.75;;;;;;;29.23;42.65;100612.81;144994;691;5002;-79
2021/07/06 00:49:33;;;;;;;4.43;4.00;;;;;;;29.25;42.36;100610.06;144994;574;5002;-80
2021/07/06 00:52:00;;;;;;;5.12;3.72;;;;;;;29.27;42.20;100610.84;144994;570;5002;-80
2021/07/06 00:54:26;;;;;;;4.37;3.72;;;;;;;29.29;42.18;100609.84;144994;626;5002;-81
2021/07/06 00:56:53;;;;;;;4.20;3.80;;;;;;;29.29;41.90;100611.66;144994;585;5002;-81
2021/07/06 00:59:21;;;;;;;5.10;3.87;;;;;;;29.29;42.38;100604.47;144994;578;5002;-81
2021/07/06 01:01:49;;;;;;;6.32;3.70;;;;;;;29.30;42.38;100608.91;144994;592;5002;-82
2021/07/06 01:04:15;;;;;;;5.53;4.40;;;;;;;29.31;42.41;100613.28;144994;572;5002;-81
2021/07/06 01:06:42;;;;;;;6.05;4.10;;;;;;;29.33;42.34;100620.37;144994;634;5002;-82
2021/07/06 01:09:10;;;;;;;4.30;3.90;;;;;;;29.33;42.27;100615.88;144994;585;5002;-82
2021/07/06 01:11:36;;;;;;;5.07;4.00;;;;;;;29.34;42.36;100622.97;144994;570;5002;-81
2021/07/06 01:14:03;;;;;;;4.90;4.45;;;;;;;29.34;42.56;100622.97;144994;666;5002;-80
2021/07/06 01:16:30;;;;;;;4.50;4.10;;;;;;;29.33;42.79;100623.03;144994;587;5002;-80
2021/07/06 01:18:57;;;;;;;5.10;4.50;;;;;;;29.30;42.71;100630.28;144994;694;5002;-81
2021/07/06 01:21:24;;;;;;;5.50;4.37;;;;;;;29.30;42.69;100632.06;144994;569;5002;-82
2021/07/06 01:23:51;;;;;;;5.10;4.50;;;;;;;29.28;42.88;100636.63;144994;598;5002;-83
2021/07/06 01:26:17;;;;;;;4.70;4.12;;;;;;;29.25;42.80;100642.12;144994;736;5002;-80
2021/07/06 01:28:44;;;;;;;11.95;5.32;;;;;;;29.20;42.36;100641.50;144994;586;5002;-82
2021/07/06 01:31:10;;;;;;;5.45;4.07;;;;;;;29.07;42.32;100641.22;144994;648;5002;-82
2021/07/06 01:33:38;;;;;;;5.37;4.05;;;;;;;29.01;42.55;100631.66;144994;656;5002;-81
2021/07/06 01:36:07;;;;;;;4.20;3.80;;;;;;;28.93;43.46;100637.37;144994;589;5002;-81
2021/07/06 01:38:35;;;;;;;6.55;3.92;;;;;;;28.95;43.32;100642.66;144994;588;5002;-81
2021/07/06 01:41:03;;;;;;;5.90;4.22;;;;;;;28.92;43.06;100640.13;144994;657;5002;-81
2021/07/06 01:43:30;;;;;;;4.28;3.95;;;;;;;28.88;43.31;100639.41;144994;570;5002;-82
2021/07/06 01:45:56;;;;;;;5.53;4.15;;;;;;;28.93;43.42;100647.22;144994;611;5003;-80
2021/07/06 01:48:22;;;;;;;7.15;4.40;;;;;;;28.94;43.26;100647.13;144994;614;5002;-82
2021/07/06 01:50:49;;;;;;;4.20;3.80;;;;;;;28.95;42.99;100643.53;144994;585;5002;-82
2021/07/06 01:53:18;;;;;;;7.30;4.78;;;;;;;28.93;42.58;100637.37;144994;600;5003;-82
2021/07/06 01:55:47;;;;;;;5.72;4.25;;;;;;;28.93;43.07;100637.37;144994;589;5002;-82
2021/07/06 01:58:19;;;;;;;5.53;4.37;;;;;;;28.95;43.20;100637.31;144994;590;5002;-83
2021/07/06 02:00:52;;;;;;;6.10;4.32;;;;;;;28.98;43.32;100641.66;144994;609;5002;-81
2021/07/06 02:03:18;;;;;;;5.10;3.92;;;;;;;28.99;43.19;100636.22;144994;585;5002;-80
2021/07/06 02:05:47;;;;;;;4.30;3.90;;;;;;;29.00;42.85;100640.66;144994;580;5002;-82
2021/07/06 02:08:19;;;;;;;5.15;4.35;;;;;;;28.98;42.97;100623.81;144994;578;5002;-81
2021/07/06 02:10:48;;;;;;;4.55;3.87;;;;;;;28.99;42.96;100633.56;144994;576;5002;-81
2021/07/06 02:13:21;;;;;;;4.12;3.72;;;;;;;29.00;43.15;100637.09;144993;646;5002;-81
2021/07/06 02:15:56;;;;;;;7.32;4.00;;;;;;;28.99;42.97;100641.56;144994;571;5002;-83
2021/07/06 02:18:35;;;;;;;4.82;4.22;;;;;;;29.01;43.09;100644.19;144994;589;5002;-77
2021/07/06 02:21:02;;;;;;;5.45;4.30;;;;;;;29.08;42.79;100648.25;144994;594;5002;-80
2021/07/06 02:23:30;;;;;;;4.60;4.20;;;;;;;29.14;43.01;100645.28;144994;590;5002;-81
2021/07/06 02:25:59;;;;;;;5.70;4.22;;;;;;;29.16;42.87;100646.09;144994;594;5002;-82
2021/07/06 02:28:25;;;;;;;7.22;5.50;;;;;;;29.06;43.06;100653.69;144994;648;5002;-81
2021/07/06 02:30:53;;;;;;;4.35;3.95;;;;;;;29.04;42.79;100639.53;144993;570;5002;-80
2021/07/06 02:33:20;;;;;;;4.90;4.40;;;;;;;29.05;42.89;100648.41;144994;589;5002;-81
2021/07/06 02:35:48;;;;;;;6.97;4.03;;;;;;;29.06;42.94;100655.50;144994;572;5002;-81
2021/07/06 02:38:15;;;;;;;6.20;4.32;;;;;;;29.02;42.88;100657.47;144994;569;5002;-81
2021/07/06 02:40:42;;;;;;;7.53;5.30;;;;;;;28.99;42.54;100662.09;144994;583;5002;-81
2021/07/06 02:43:09;;;;;;;10.93;6.10;;;;;;;28.73;43.60;100664.19;144994;580;5002;-80
2021/07/06 02:45:35;;;;;;;7.15;5.70;;;;;;;28.67;44.16;100660.00;144994;569;5002;-80
2021/07/06 02:48:02;;;;;;;10.60;6.10;;;;;;;28.57;44.87;100664.00;144994;624;5002;-79
2021/07/06 02:50:29;;;;;;;9.10;5.85;;;;;;;28.49;43.91;100660.81;144994;600;5002;-81
2021/07/06 02:52:55;;;;;;;11.57;6.00;;;;;;;28.47;44.15;100671.56;144994;666;5003;-82
2021/07/06 02:55:22;;;;;;;7.12;5.68;;;;;;;28.50;44.10;100676.75;144994;562;5012;-80
2021/07/06 02:57:52;;;;;;;12.30;6.43;;;;;;;28.47;44.15;100676.91;144994;590;5002;-83
2021/07/06 03:00:24;;;;;;;8.98;6.32;;;;;;;28.49;44.36;100664.37;144994;589;5003;-81
2021/07/06 03:02:56;;;;;;;9.57;6.75;;;;;;;28.50;44.22;100676.75;144994;581;5002;-80
2021/07/06 03:05:27;;;;;;;10.85;6.25;;;;;;;28.48;44.36;100686.66;144994;569;5002;-85
2021/07/06 03:07:54;;;;;;;19.00;8.63;;;;;;;28.51;44.60;100683.84;144994;675;5002;-80
2021/07/06 03:10:23;;;;;;;12.52;7.28;;;;;;;28.59;44.32;100680.87;144994;588;5002;-81
2021/07/06 03:12:50;;;;;;;14.45;7.22;;;;;;;28.62;45.16;100682.50;144994;657;5002;-81
2021/07/06 03:15:19;;;;;;;14.02;6.95;;;;;;;28.63;44.35;100678.91;144994;587;5002;-82
2021/07/06 03:17:46;;;;;;;13.05;7.15;;;;;;;28.62;44.52;100685.19;144994;627;5002;-80
2021/07/06 03:20:15;;;;;;;9.73;7.30;;;;;;;28.59;44.39;100687.06;144994;577;5002;-80
2021/07/06 03:22:42;;;;;;;15.02;7.57;;;;;;;28.56;45.14;100697.84;144994;591;5002;-81
2021/07/06 03:25:12;;;;;;;12.10;6.85;;;;;;;28.55;44.40;100696.09;144994;577;5002;-81
2021/07/06 03:27:39;;;;;;;13.10;7.20;;;;;;;28.54;44.54;100694.37;144994;563;5002;-82
2021/07/06 03:30:11;;;;;;;12.82;7.25;;;;;;;28.54;44.42;100702.41;144994;585;5002;-81
2021/07/06 03:32:38;;;;;;;14.00;7.80;;;;;;;28.55;44.39;100701.44;144994;587;5002;-81
2021/07/06 03:35:06;;;;;;;18.42;8.52;;;;;;;28.51;44.49;100699.00;144994;584;5002;-81
2021/07/06 03:37:33;;;;;;;13.68;7.62;;;;;;;28.51;44.63;100710.56;144994;575;5002;-81
2021/07/06 03:39:59;;;;;;;12.02;7.62;;;;;;;28.52;44.38;100706.94;144994;589;5002;-81
2021/07/06 03:42:26;;;;;;;13.93;7.78;;;;;;;28.54;44.48;100706.84;144994;617;5002;-80
2021/07/06 03:44:52;;;;;;;15.32;7.45;;;;;;;28.54;44.48;100705.06;144994;569;5002;-81
2021/07/06 03:47:19;;;;;;;13.05;7.15;;;;;;;28.54;44.97;100707.75;144994;571;5002;-81
2021/07/06 03:49:45;;;;;;;10.45;7.05;;;;;;;28.54;44.62;100713.09;144994;672;5002;-81
2021/07/06 03:52:12;;;;;;;13.68;7.72;;;;;;;28.56;44.50;100708.53;144994;576;5002;-81
2021/07/06 03:54:38;;;;;;;15.18;7.82;;;;;;;28.59;44.46;100705.75;144994;601;5002;-81
2021/07/06 03:57:05;;;;;;;10.95;6.43;;;;;;;28.61;44.32;100705.69;144993;596;5002;-81
2021/07/06 03:59:31;;;;;;;15.23;6.80;;;;;;;28.62;44.33;100710.09;144994;580;5002;-81
2021/07/06 04:01:57;;;;;;;27.67;7.87;;;;;;;28.59;44.44;100711.09;144994;581;5002;-80
2021/07/06 04:04:24;;;;;;;10.98;6.32;;;;;;;28.62;44.27;100714.56;144994;663;5002;-81
2021/07/06 04:06:50;;;;;;;10.23;5.30;;;;;;;28.65;44.17;100709.06;144994;589;5002;-81
2021/07/06 04:09:19;;;;;;;9.30;5.22;;;;;;;28.62;44.10;100710.09;144994;587;5002;-81
2021/07/06 04:11:49;;;;;;;9.93;5.00;;;;;;;28.67;44.17;100709.91;144994;715;5002;-80
2021/07/06 04:14:15;;;;;;;7.68;4.95;;;;;;;28.75;43.93;100710.41;144994;585;5019;-84
2021/07/06 04:16:42;;;;;;;9.65;5.15;;;;;;;28.80;43.82;100713.72;144994;653;5002;-80
2021/07/06 04:19:08;;;;;;;8.50;5.37;;;;;;;28.84;43.75;100715.31;144994;588;5002;-81
2021/07/06 04:21:35;;;;;;;10.77;5.70;;;;;;;28.80;43.79;100707.50;144993;658;5002;-81
2021/07/06 04:24:03;;;;;;;8.82;5.50;;;;;;;28.80;43.58;100708.37;144994;597;5002;-80
2021/07/06 04:26:29;;;;;;;8.07;5.28;;;;;;;28.85;43.43;100713.50;144994;595;5002;-81
2021/07/06 04:28:55;;;;;;;6.65;4.60;;;;;;;28.89;43.40;100723.97;144994;592;5002;-82
2021/07/06 04:31:22;;;;;;;16.35;6.30;;;;;;;28.90;43.44;100724.84;144994;571;5002;-80
2021/07/06 04:33:48;;;;;;;15.70;5.85;;;;;;;28.91;43.13;100727.44;144994;600;5002;-81
2021/07/06 04:36:15;;;;;;;10.27;5.70;;;;;;;28.82;43.20;100737.69;144994;696;5002;-79
2021/07/06 04:38:41;;;;;;;8.27;4.97;;;;;;;28.84;43.06;100741.13;144994;587;5002;-82
2021/07/06 04:41:08;;;;;;;13.45;5.20;;;;;;;28.84;43.27;100744.69;144994;595;5002;-80
2021/07/06 04:43:34;;;;;;;9.98;5.30;;;;;;;28.81;43.14;100742.16;144994;579;5002;-81
2021/07/06 04:46:01;;;;;;;10.93;5.40;;;;;;;28.73;43.13;100750.53;144994;578;5002;-80
2021/07/06 04:48:27;;;;;;;8.52;5.35;;;;;;;28.69;43.61;100754.25;144994;599;5002;-81
2021/07/06 04:51:09;;;;;;;8.27;5.57;;;;;;;28.72;43.56;100755.94;144994;690;4567;-87
2021/07/06 04:53:38;;;;;;;9.13;5.78;;;;;;;28.69;43.76;100754.25;144994;573;4572;-81
2021/07/06 04:56:04;;;;;;;8.85;5.65;;;;;;;28.71;43.51;100754.19;144992;572;6002;-81
2021/07/06 04:58:31;;;;;;;13.90;6.87;;;;;;;28.73;43.73;100761.22;144992;706;6002;-80
2021/07/06 05:00:58;;;;;;;12.02;6.28;;;;;;;28.70;43.60;100757.81;144992;571;6002;-81
2021/07/06 05:03:25;;;;;;;11.57;6.20;;;;;;;28.66;43.58;100764.22;144992;621;6002;-79
2021/07/06 05:05:52;;;;;;;9.52;6.35;;;;;;;28.67;43.66;100772.16;144992;582;6002;-81
2021/07/06 05:08:18;;;;;;;11.25;6.40;;;;;;;28.67;43.76;100768.66;144992;750;6002;-80
2021/07/06 05:10:46;;;;;;;10.50;6.07;;;;;;;28.63;43.90;100767.03;144992;576;6002;-81
2021/07/06 05:13:13;;;;;;;10.05;6.22;;;;;;;28.55;44.34;100783.38;144992;580;6002;-83
2021/07/06 05:15:39;;;;;;;7.55;5.97;;;;;;;28.45;44.39;100787.38;144992;574;6002;-81
2021/07/06 05:18:06;;;;;;;12.63;6.00;;;;;;;28.38;45.64;100802.78;144992;727;6002;-80
2021/07/06 05:20:32;;;;;;;11.07;6.68;;;;;;;28.35;44.83;100798.47;144992;617;6002;-81
2021/07/06 05:22:59;;;;;;;11.50;7.18;;;;;;;28.37;44.95;100793.06;144992;578;6002;-82
2021/07/06 05:25:25;;;;;;;15.05;7.40;;;;;;;28.47;44.81;100799.72;144991;648;6002;-79
2021/07/06 05:27:52;;;;;;;7.60;5.80;;;;;;;28.46;45.23;100799.78;144992;579;6002;-81
2021/07/06 05:30:19;;;;;;;8.20;6.07;;;;;;;28.47;45.61;100802.38;144992;760;6002;-82
2021/07/06 05:32:47;;;;;;;8.60;5.75;;;;;;;28.51;45.39;100803.16;144992;688;6002;-81
2021/07/06 05:35:14;;;;;;;9.32;6.20;;;;;;;28.53;45.75;100804.78;144992;702;6002;-82
2021/07/06 05:37:41;;;;;;;10.43;6.18;;;;;;;28.61;45.34;100801.81;144992;652;6002;-82
2021/07/06 05:40:10;;;;;;;8.23;6.00;;;;;;;28.66;45.42;100794.47;144992;573;6002;-82
2021/07/06 05:42:38;;;;;;;11.45;6.18;;;;;;;28.73;45.32;100803.06;144992;571;6002;-81
2021/07/06 05:45:06;;;;;;;11.15;6.87;;;;;;;28.76;45.47;100808.25;144992;690;6002;-80
2021/07/06 05:47:35;;;;;;;13.25;7.00;;;;;;;28.80;45.06;100807.22;144992;632;6002;-80
2021/07/06 05:50:06;;;;;;;12.23;6.37;;;;;;;28.83;45.01;100808.88;144992;628;6002;-81
2021/07/06 05:52:34;;;;;;;9.77;6.07;;;;;;;28.85;44.96;100810.53;144992;670;6002;-81
2021/07/06 05:55:04;;;;;;;8.23;6.20;;;;;;;28.88;45.17;100813.06;144992;598;6002;-82
2021/07/06 05:57:31;;;;;;;9.38;5.75;;;;;;;28.85;45.37;100807.00;144992;590;6002;-81
2021/07/06 05:59:58;;;;;;;11.10;6.20;;;;;;;28.87;45.54;100811.34;144992;570;6002;-81
2021/07/06 06:02:24;;;;;;;11.23;6.75;;;;;;;28.92;45.91;100817.34;144992;569;6002;-80
2021/07/06 06:04:51;;;;;;;9.77;5.87;;;;;;;28.91;45.82;100818.28;144992;569;6002;-81
2021/07/06 06:07:18;;;;;;;14.60;6.05;;;;;;;28.86;45.88;100814.94;144992;578;6002;-80
2021/07/06 06:09:44;;;;;;;19.10;6.30;;;;;;;28.88;45.53;100823.75;144992;579;6002;-81
2021/07/06 06:12:11;;;;;;;10.13;5.97;;;;;;;28.94;45.40;100825.28;144992;565;6002;-81
2021/07/06 06:14:39;;;;;;;9.55;6.00;;;;;;;29.00;45.63;100822.34;144992;583;6002;-81
2021/07/06 06:17:06;;;;;;;14.13;7.82;;;;;;;29.04;44.25;100813.22;144992;708;6002;-79
2021/07/06 06:19:32;;;;;;;10.70;6.07;;;;;;;29.10;44.76;100818.28;144992;564;6002;-81
2021/07/06 06:21:59;;;;;;;10.65;5.55;;;;;;;29.22;44.56;100822.22;144992;609;6002;-80
2021/07/06 06:24:25;;;;;;;8.60;5.43;;;;;;;29.38;44.28;100830.44;144992;582;6002;-81
2021/07/06 06:26:52;;;;;;;7.70;5.15;;;;;;;29.50;44.40;100820.94;144992;599;6002;-81
2021/07/06 06:29:19;;;;;;;6.53;4.80;;;;;;;29.65;43.82;100822.88;144992;672;6002;-81
2021/07/06 06:31:46;;;;;;;8.43;5.18;;;;;;;29.81;43.94;100825.72;144992;571;6002;-82
2021/07/06 06:34:13;;;;;;;11.73;5.03;;;;;;;29.99;43.44;100823.06;144992;657;6002;-81
2021/07/06 06:36:40;;;;;;;10.25;5.60;;;;;;;30.13;42.16;100817.00;144992;683;6002;-81
2021/07/06 06:39:07;;;;;;;9.05;6.07;;;;;;;30.24;43.09;100822.66;144992;601;6002;-82
2021/07/06 06:41:34;;;;;;;21.75;13.02;;;;;;;30.31;42.98;100829.44;144992;581;6002;-81
2021/07/06 06:44:00;;;;;;;15.93;8.98;;;;;;;30.32;43.07;100820.50;144991;567;6002;-82
2021/07/06 06:46:27;;;;;;;11.50;9.13;;;;;;;30.24;39.86;100816.44;144992;583;6002;-81
2021/07/06 06:48:54;;;;;;;12.15;9.18;;;;;;;30.30;42.61;100827.72;144992;647;6002;-82
2021/07/06 06:51:20;;;;;;;10.55;7.15;;;;;;;30.35;43.21;100827.47;144992;565;6002;-82
2021/07/06 06:53:47;;;;;;;6.15;4.82;;;;;;;30.33;39.89;100832.06;144992;612;6002;-80
2021/07/06 06:56:13;;;;;;;7.05;4.47;;;;;;;30.32;41.91;100830.31;144992;570;6002;-81
2021/07/06 06:58:39;;;;;;;8.75;4.95;;;;;;;30.24;41.43;100836.03;144992;669;6002;-83
2021/07/06 07:01:06;;;;;;;6.65;5.65;;;;;;;30.13;41.57;100835.72;144992;589;6002;-81
2021/07/06 07:03:33;;;;;;;8.32;5.20;;;;;;;30.11;44.70;100837.63;144991;595;6002;-80
2021/07/06 07:05:59;;;;;;;11.12;7.25;;;;;;;30.06;41.87;100837.00;144992;593;6002;-81
2021/07/06 07:08:25;;;;;;;8.32;5.55;;;;;;;29.90;49.24;100843.09;144992;641;6002;-80
2021/07/06 07:10:52;;;;;;;6.55;5.37;;;;;;;29.76;45.86;100834.84;144992;578;6002;-81
2021/07/06 07:13:18;;;;;;;7.95;4.87;;;;;;;29.82;45.80;100831.91;144992;619;6003;-82
2021/07/06 07:15:45;;;;;;;6.55;5.43;;;;;;;29.80;46.03;100834.66;144992;621;6002;-80
2021/07/06 07:18:11;;;;;;;7.90;5.47;;;;;;;29.83;46.71;100833.66;144992;613;6002;-80
2021/07/06 07:20:38;;;;;;;6.37;5.50;;;;;;;29.91;46.96;100831.47;144992;565;6002;-82
2021/07/06 07:23:05;;;;;;;6.10;5.60;;;;;;;29.78;48.91;100836.53;144992;570;6002;-82
2021/07/06 07:25:32;;;;;;;6.28;5.60;;;;;;;29.73;48.17;100833.19;144992;570;6002;-81
2021/07/06 07:27:59;;;;;;;8.40;5.30;;;;;;;29.89;48.14;100833.34;144992;600;6002;-80
2021/07/06 07:30:26;;;;;;;7.15;5.25;;;;;;;29.94;48.02;100833.09;144992;609;6002;-81
2021/07/06 07:32:52;;;;;;;7.35;5.55;;;;;;;30.14;48.05;100826.75;144992;570;6002;-81
2021/07/06 07:35:20;;;;;;;6.97;5.30;;;;;;;30.11;49.06;100830.44;144992;606;6002;-81
2021/07/06 07:37:47;;;;;;;6.95;5.43;;;;;;;30.25;47.93;100821.72;144992;605;6002;-82
2021/07/06 07:40:16;;;;;;;6.50;5.15;;;;;;;30.27;47.70;100814.47;144992;599;6002;-81
2021/07/06 07:42:43;;;;;;;9.07;5.47;;;;;;;30.28;47.81;100818.91;144992;599;6002;-80
2021/07/06 07:45:15;;;;;;;6.70;4.85;;;;;;;30.37;47.20;100823.78;144992;629;6002;-81
2021/07/06 07:47:44;;;;;;;7.12;5.18;;;;;;;30.61;46.92;100818.12;144992;563;6002;-82
2021/07/06 07:50:12;;;;;;;7.97;5.60;;;;;;;30.59;46.80;100813.78;144992;567;6002;-82
2021/07/06 07:52:41;;;;;;;7.50;5.75;;;;;;;30.51;46.53;100824.91;144991;626;6002;-82
2021/07/06 07:55:11;;;;;;;7.47;4.95;;;;;;;30.55;46.35;100818.44;144992;579;6002;-80
2021/07/06 07:57:38;;;;;;;5.97;4.87;;;;;;;30.74;46.12;100824.56;144992;572;6002;-80
2021/07/06 08:00:07;;;;;;;7.95;5.50;;;;;;;31.01;46.02;100823.22;144992;663;6002;-80
2021/07/06 08:02:38;;;;;;;7.35;5.12;;;;;;;31.15;45.23;100820.63;144992;613;6002;-88
2021/07/06 08:05:09;;;;;;;6.72;5.72;;;;;;;31.25;44.71;100819.16;144992;580;6003;-81
2021/07/06 08:07:36;;;;;;;8.65;4.53;;;;;;;31.47;44.67;100810.78;144992;569;6002;-82
2021/07/06 08:10:03;;;;;;;6.65;4.75;;;;;;;31.54;42.15;100807.78;144992;673;6002;-81
2021/07/06 08:12:30;;;;;;;8.52;5.75;;;;;;;31.57;40.29;100810.28;144992;578;6003;-80
2021/07/06 08:14:56;;;;;;;8.60;5.32;;;;;;;31.76;41.88;100819.00;144992;654;6002;-80
2021/07/06 08:17:23;;;;;;;7.82;5.97;;;;;;;31.84;38.27;100815.88;144992;700;6002;-82
2021/07/06 08:19:52;;;;;;;9.35;5.47;;;;;;;31.95;41.41;100815.28;144991;566;6002;-81
2021/07/06 08:22:18;;;;;;;5.20;4.70;;;;;;;32.08;40.35;100818.09;144992;565;6002;-81
2021/07/06 08:24:45;;;;;;;5.32;4.40;;;;;;;32.19;39.45;100819.22;144992;586;6002;-80
2021/07/06 08:27:12;;;;;;;4.28;3.87;;;;;;;32.25;40.68;100822.50;144992;589;6002;-82
2021/07/06 08:29:39;;;;;;;6.20;4.18;;;;;;;32.20;35.94;100820.09;144992;634;6002;-79
2021/07/06 08:32:06;;;;;;;4.43;4.03;;;;;;;32.27;36.00;100834.00;144992;631;6002;-80
2021/07/06 08:34:33;;;;;;;7.00;5.05;;;;;;;32.29;37.17;100832.09;144992;673;6002;-81
2021/07/06 08:36:59;;;;;;;4.18;3.72;;;;;;;32.31;34.23;100825.69;144992;696;6002;-80
2021/07/06 08:39:26;;;;;;;6.20;3.97;;;;;;;32.34;35.27;100824.63;144992;732;6002;-82
2021/07/06 08:41:52;;;;;;;4.80;4.32;;;;;;;32.44;36.09;100825.81;144992;637;6002;-80
2021/07/06 08:44:21;;;;;;;4.62;4.22;;;;;;;32.39;35.55;100827.91;144992;716;6002;-82
2021/07/06 08:46:49;;;;;;;5.65;4.00;;;;;;;32.36;38.11;100836.16;144992;569;6002;-81
2021/07/06 08:49:19;;;;;;;4.35;4.00;;;;;;;32.24;33.54;100820.75;144992;577;6002;-82
2021/07/06 08:51:52;;;;;;;8.88;4.35;;;;;;;32.29;34.07;100824.88;144992;569;6002;-80
2021/07/06 08:54:21;;;;;;;7.12;4.22;;;;;;;32.32;33.39;100829.22;144992;581;6002;-81
2021/07/06 08:56:49;;;;;;;5.43;4.03;;;;;;;32.28;32.96;100817.81;144992;685;6002;-80
2021/07/06 08:59:16;;;;;;;4.20;3.90;;;;;;;32.32;32.99;100813.97;144992;587;6002;-80
2021/07/06 09:01:42;;;;;;;5.15;3.80;;;;;;;32.29;32.54;100818.66;144992;601;6002;-81
2021/07/06 09:04:09;;;;;;;6.25;3.85;;;;;;;32.35;33.37;100818.28;144992;604;6002;-81
2021/07/06 09:07:01;;;;;;;5.78;3.90;;;;;;;32.44;32.10;100816.91;144992;638;6002;-80
2021/07/06 09:09:28;;;;;;;6.78;4.20;;;;;;;32.49;34.26;100810.25;144992;678;6004;-82
2021/07/06 09:11:57;;;;;;;5.87;3.65;;;;;;;32.62;34.00;100815.75;144992;568;6005;-80
2021/07/06 09:14:29;;;;;;;3.90;3.60;;;;;;;32.64;31.22;100802.25;144992;615;6004;-80
2021/07/06 09:17:17;;;;;;;6.30;3.85;;;;;;;32.53;30.41;100805.56;144992;602;6004;-80
2021/07/06 09:19:49;;;;;;;4.43;3.35;;;;;;;32.47;30.11;100804.13;144992;579;6003;-81
2021/07/06 09:22:30;;;;;;;4.20;3.75;;;;;;;32.54;29.92;100799.25;144992;670;6002;-80
2021/07/06 09:25:08;;;;;;;5.90;3.78;;;;;;;32.64;30.42;100799.56;144992;652;6002;-80
2021/07/06 09:27:37;;;;;;;6.55;3.58;;;;;;;32.72;30.45;100802.63;144992;637;6002;-81
2021/07/06 09:30:22;;;;;;;4.82;3.80;;;;;;;32.84;29.89;100801.03;144992;730;6002;-81
2021/07/06 09:32:56;;;;;;;3.95;3.50;;;;;;;32.97;30.43;100795.75;144992;663;6002;-81
2021/07/06 09:35:28;;;;;;;6.68;3.70;;;;;;;32.93;29.38;100799.56;144992;649;6002;-80
2021/07/06 09:37:57;;;;;;;4.07;3.67;;;;;;;32.94;28.68;100794.09;144992;572;6002;-81
2021/07/06 09:40:44;;;;;;;4.45;4.05;;;;;;;32.94;29.16;100802.16;144992;569;6002;-81
2021/07/06 09:43:25;;;;;;;7.00;4.53;;;;;;;32.99;28.23;100791.12;144992;565;6002;-81
2021/07/06 09:46:10;;;;;;;6.22;3.83;;;;;;;33.08;28.50;100790.53;144992;563;6002;-80
2021/07/06 09:48:39;;;;;;;5.95;4.00;;;;;;;33.13;27.82;100796.47;144992;585;6004;-82
2021/07/06 09:51:17;;;;;;;6.93;3.33;;;;;;;33.17;28.24;100792.69;144992;566;6004;-80
2021/07/06 09:53:49;;;;;;;4.35;3.20;;;;;;;33.15;27.01;100782.94;144992;592;6004;-80
2021/07/06 09:56:22;;;;;;;4.50;3.28;;;;;;;33.16;28.28;100790.91;144992;633;6004;-81
2021/07/06 09:59:00;;;;;;;5.10;3.30;;;;;;;33.16;28.78;100790.06;144992;579;6004;-80
2021/07/06 10:01:28;;;;;;;4.03;2.92;;;;;;;33.14;27.63;100789.25;144992;568;6004;-80
2021/07/06 10:03:56;;;;;;;3.78;2.90;;;;;;;33.12;26.78;100793.88;144992;590;6005;-80
2021/07/06 10:06:25;;;;;;;2.70;2.50;;;;;;;33.17;25.71;100789.06;144992;566;6004;-81
2021/07/06 10:08:53;;;;;;;7.45;2.87;;;;;;;33.21;26.30;100788.81;144992;588;6004;-80
2021/07/06 10:11:21;;;;;;;3.30;3.00;;;;;;;33.26;26.58;100777.75;144992;583;6005;-81
2021/07/06 10:13:47;;;;;;;2.67;2.47;;;;;;;33.37;26.18;100772.53;144992;581;6004;-80
2021/07/06 10:16:18;;;;;;;3.10;2.80;;;;;;;33.31;26.03;100782.84;144992;600;6004;-78
2021/07/06 10:18:45;;;;;;;4.57;2.90;;;;;;;33.28;25.64;100780.34;144992;580;6004;-82
2021/07/06 10:21:12;;;;;;;3.92;2.90;;;;;;;33.44;27.49;100787.31;144992;599;6004;-81
2021/07/06 10:23:43;;;;;;;4.62;2.65;;;;;;;33.50;25.23;100783.34;144992;568;6012;-80
2021/07/06 10:26:19;;;;;;;5.70;2.75;;;;;;;33.62;25.36;100787.94;144992;573;6004;-80
2021/07/06 10:28:51;;;;;;;3.60;2.70;;;;;;;33.68;25.37;100791.16;144992;568;6004;-80
2021/07/06 10:31:19;;;;;;;4.28;2.60;;;;;;;33.63;23.86;100784.28;144992;670;6004;-80
2021/07/06 10:33:48;;;;;;;3.92;2.35;;;;;;;33.71;24.56;100778.44;144992;578;6004;-80
2021/07/06 10:36:16;;;;;;;3.75;2.72;;;;;;;33.65;24.10;100786.00;144992;569;6004;-80
2021/07/06 10:38:45;;;;;;;2.72;2.50;;;;;;;33.77;26.20;100790.59;144992;612;6004;-80
2021/07/06 10:41:34;;;;;;;2.50;2.30;;;;;;;33.74;24.62;100793.50;144992;568;6004;-81
2021/07/06 10:44:02;;;;;;;2.95;2.33;;;;;;;33.85;24.03;100782.00;144992;588;6002;-80
2021/07/06 10:46:50;;;;;;;5.72;2.30;;;;;;;33.86;23.34;100778.38;144992;605;6002;-80
2021/07/06 10:49:33;;;;;;;2.90;2.25;;;;;;;33.87;23.51;100770.19;144992;563;6004;-80
2021/07/06 10:52:01;;;;;;;3.35;2.50;;;;;;;33.89;24.14;100768.25;144992;601;6004;-80
2021/07/06 10:54:30;;;;;;;2.60;2.40;;;;;;;33.89;23.40;100770.09;144992;589;6004;-80
2021/07/06 10:57:23;;;;;;;2.40;2.20;;;;;;;33.99;23.93;100765.78;144992;581;6004;-80
2021/07/06 10:59:53;;;;;;;2.80;2.25;;;;;;;34.05;23.44;100769.91;144992;567;6004;-80
2021/07/06 11:02:27;;;;;;;5.00;2.22;;;;;;;34.07;25.27;100759.88;144992;575;6004;-80
2021/07/06 11:04:58;;;;;;;2.37;2.17;;;;;;;34.09;23.86;100763.31;144992;628;6004;-80
2021/07/06 11:07:51;;;;;;;3.90;2.25;;;;;;;34.09;22.96;100760.62;144992;599;6004;-80
2021/07/06 11:10:19;;;;;;;4.55;2.47;;;;;;;34.20;24.01;100749.13;144992;600;6002;-81
2021/07/06 11:12:48;;;;;;;3.35;2.53;;;;;;;34.23;23.58;100751.63;144993;626;6002;-80
2021/07/06 11:15:27;;;;;;;4.85;2.45;;;;;;;34.19;23.58;100750.97;144993;638;6002;-80
2021/07/06 11:18:10;;;;;;;5.25;2.50;;;;;;;34.23;23.57;100748.94;144993;710;6002;-79
2021/07/06 11:20:48;;;;;;;3.42;2.50;;;;;;;34.26;24.41;100756.81;144993;665;6004;-78
2021/07/06 11:23:32;;;;;;;2.75;2.55;;;;;;;34.34;24.04;100752.59;144993;563;6002;-80
2021/07/06 11:26:04;;;;;;;7.15;2.78;;;;;;;34.31;24.76;100750.13;144993;598;6003;-81
2021/07/06 11:28:30;;;;;;;6.37;2.75;;;;;;;34.41;24.22;100754.88;144993;607;6002;-79
2021/07/06 11:31:02;;;;;;;3.45;2.47;;;;;;;34.46;25.93;100752.75;144993;588;6002;-79
2021/07/06 11:33:46;;;;;;;3.37;2.90;;;;;;;34.43;25.05;100752.94;144993;583;6003;-81
2021/07/06 11:36:26;;;;;;;5.18;2.58;;;;;;;34.46;23.32;100750.03;144993;702;6000;-79
2021/07/06 11:39:01;;;;;;;3.28;2.97;;;;;;;34.47;24.06;100751.75;144993;612;6002;-80